Time;durP1;ratioP1;P1;durP2;ratioP2;P2;SDS_P1;SDS_P2;PMS_P1;PMS_P2;Temp;Humidity;BMP_temperature;BMP_pressure;BME280_temperature;BME280_humidity;BME280_pressure;Samples;Min_cycle;Max_cycle;Signal;HPM_P1;HPM_P2
2022/09/19 00:01:48;;;;;;;0.00;0.00;;;;;;;14.54;43.80;95180.28;5037594;28;20526;-71
2022/09/19 00:04:25;;;;;;;0.10;0.10;;;;;;;14.52;43.53;95165.78;5032989;28;20528;-67
2022/09/19 00:06:53;;;;;;;0.03;0.03;;;;;;;14.35;43.44;95184.59;5049296;28;20453;-70
2022/09/19 00:09:23;;;;;;;0.27;0.27;;;;;;;14.53;43.39;95152.31;5049646;28;20554;-64
2022/09/19 00:11:50;;;;;;;0.13;0.13;;;;;;;14.66;43.71;95167.53;5038931;28;20494;-67
2022/09/19 00:14:23;;;;;;;0.47;0.47;;;;;;;14.83;43.21;95175.88;5032181;28;20547;-68
2022/09/19 00:16:56;;;;;;;0.00;0.00;;;;;;;14.45;44.35;95160.81;5049276;28;20820;-73
2022/09/19 00:19:24;;;;;;;0.40;0.40;;;;;;;14.15;45.06;95158.31;5046087;28;20474;-63
2022/09/19 00:21:55;;;;;;;1.10;0.73;;;;;;;14.00;45.25;95163.63;5029291;28;20451;-68
2022/09/19 00:27:10;;;;;;;0.13;0.13;;;;;;;14.73;44.53;95168.03;5049259;28;20529;-63
2022/09/19 00:29:38;;;;;;;0.13;0.13;;;;;;;14.24;45.11;95167.22;5036514;28;20542;-65
2022/09/19 00:32:07;;;;;;;0.00;0.00;;;;;;;14.18;45.11;95155.91;5042957;28;21036;-61
2022/09/19 00:34:35;;;;;;;0.00;0.00;;;;;;;14.12;44.98;95154.34;5033418;28;20938;-68
2022/09/19 00:37:02;;;;;;;2.03;0.50;;;;;;;14.33;44.61;95168.25;5045978;28;20447;-62
2022/09/19 00:39:30;;;;;;;0.00;0.00;;;;;;;14.13;45.12;95163.84;5041503;28;20483;-66
2022/09/19 00:41:57;;;;;;;0.20;0.20;;;;;;;14.30;44.06;95168.81;5053248;28;20443;-69
2022/09/19 00:44:24;;;;;;;0.00;0.00;;;;;;;14.03;45.13;95165.75;5052698;28;20494;-69
2022/09/19 00:47:12;;;;;;;0.53;0.53;;;;;;;14.21;44.38;95163.28;5033943;28;20958;-71
2022/09/19 00:49:44;;;;;;;1.30;0.73;;;;;;;13.78;45.51;95168.44;5031660;28;20484;-64
2022/09/19 00:52:21;;;;;;;0.00;0.00;;;;;;;13.84;45.66;95175.28;5039134;28;20508;-65
2022/09/19 00:54:49;;;;;;;0.47;0.47;;;;;;;13.98;45.21;95181.56;5052841;28;20482;-64
2022/09/19 00:57:17;;;;;;;0.20;0.20;;;;;;;13.95;44.87;95174.19;5035301;28;21002;-67
2022/09/19 00:59:47;;;;;;;0.50;0.50;;;;;;;13.83;45.13;95174.50;5043951;28;20624;-67
2022/09/19 01:02:20;;;;;;;0.10;0.10;;;;;;;13.92;45.16;95169.47;5033633;28;20950;-66
2022/09/19 01:04:47;;;;;;;0.10;0.10;;;;;;;14.09;45.13;95167.28;5052849;28;20538;-69
2022/09/19 01:07:28;;;;;;;0.10;0.10;;;;;;;13.88;45.57;95165.78;5044410;28;20455;-65
2022/09/19 01:10:17;;;;;;;0.97;0.93;;;;;;;13.49;46.80;95162.19;5057163;28;20443;-73
2022/09/19 01:13:14;;;;;;;0.00;0.00;;;;;;;13.90;45.30;95158.41;5038448;28;20449;-68
2022/09/19 01:16:00;;;;;;;0.00;0.00;;;;;;;14.10;45.25;95161.72;5052590;28;20473;-70
2022/09/19 01:18:34;;;;;;;0.43;0.43;;;;;;;14.24;44.50;95165.38;5051973;28;20820;-73
2022/09/19 01:24:28;;;;;;;0.60;0.60;;;;;;;13.21;46.89;95169.59;5030996;28;20531;-71
2022/09/19 01:27:23;;;;;;;3.20;1.37;;;;;;;13.38;47.09;95160.63;5040952;28;20458;-71
2022/09/19 01:29:57;;;;;;;0.17;0.17;;;;;;;13.82;45.77;95161.59;5032343;28;20440;-67
2022/09/19 01:32:33;;;;;;;0.40;0.40;;;;;;;13.79;45.68;95151.59;5039244;28;20536;-65
2022/09/19 01:35:05;;;;;;;0.07;0.07;;;;;;;12.73;48.06;95140.41;5037061;28;20442;-70
2022/09/19 01:37:39;;;;;;;0.50;0.50;;;;;;;13.15;46.39;95157.53;5039108;28;20466;-64
2022/09/19 01:40:09;;;;;;;0.00;0.00;;;;;;;13.07;46.25;95149.38;5050477;28;20466;-70
2022/09/19 01:42:57;;;;;;;0.53;0.20;;;;;;;13.18;46.47;95159.63;5050245;28;20524;-63
2022/09/19 01:45:32;;;;;;;0.00;0.00;;;;;;;13.44;45.80;95149.06;5050432;28;20443;-65
2022/09/19 01:48:05;;;;;;;0.23;0.23;;;;;;;13.09;45.87;95153.31;5051832;28;20449;-66
2022/09/19 01:50:46;;;;;;;0.40;0.40;;;;;;;13.42;45.09;95151.16;5043401;28;21048;-65
2022/09/19 01:53:34;;;;;;;0.00;0.00;;;;;;;13.35;44.98;95148.81;5044024;28;20453;-67
2022/09/19 01:56:32;;;;;;;0.10;0.10;;;;;;;13.31;44.82;95149.59;5035055;28;20840;-71
2022/09/19 01:59:26;;;;;;;0.10;0.10;;;;;;;13.37;45.28;95151.19;5033009;28;21054;-68
2022/09/19 02:02:17;;;;;;;0.10;0.10;;;;;;;13.09;46.46;95149.88;5050136;28;20896;-70
2022/09/19 02:05:04;;;;;;;0.00;0.00;;;;;;;13.63;45.29;95136.91;5050229;28;20904;-66
2022/09/19 02:07:42;;;;;;;0.10;0.10;;;;;;;13.50;45.29;95148.00;5037337;28;20478;-70
2022/09/19 02:10:36;;;;;;;0.10;0.10;;;;;;;13.11;46.32;95145.16;5050119;28;20439;-70
2022/09/19 02:13:09;;;;;;;0.00;0.00;;;;;;;13.30;45.85;95140.13;5029263;28;20443;-62
2022/09/19 02:15:49;;;;;;;0.10;0.10;;;;;;;13.05;46.00;95140.94;5043823;28;20439;-66
2022/09/19 02:18:53;;;;;;;0.10;0.10;;;;;;;13.20;45.75;95128.56;5029698;28;20501;-68
2022/09/19 02:21:41;;;;;;;0.00;0.00;;;;;;;12.88;46.52;95137.78;5034253;28;20439;-65
2022/09/19 02:24:16;;;;;;;0.20;0.20;;;;;;;13.41;45.68;95136.44;5037194;28;21016;-66
2022/09/19 02:26:48;;;;;;;0.20;0.20;;;;;;;12.66;47.49;95138.03;5038176;28;20458;-67
2022/09/19 02:29:20;;;;;;;0.77;0.60;;;;;;;12.64;47.23;95134.88;5036006;28;20451;-75
2022/09/19 02:31:47;;;;;;;0.00;0.00;;;;;;;12.86;46.88;95132.00;5033281;28;20452;-70
2022/09/19 02:34:15;;;;;;;0.10;0.10;;;;;;;12.92;47.28;95126.44;5029807;28;20534;-71
2022/09/19 02:36:50;;;;;;;0.20;0.20;;;;;;;13.00;46.16;95131.19;5032287;28;20856;-70
2022/09/19 02:39:26;;;;;;;0.40;0.40;;;;;;;13.21;46.21;95118.81;5046434;28;20513;-72
2022/09/19 02:42:17;;;;;;;0.83;0.63;;;;;;;12.60;47.89;95120.66;5029533;28;21058;-70
2022/09/19 02:45:07;;;;;;;0.00;0.00;;;;;;;12.62;47.78;95131.72;5049292;28;20549;-68
2022/09/19 02:48:02;;;;;;;0.20;0.20;;;;;;;12.57;48.19;95134.31;5049332;28;21265;-72
2022/09/19 02:50:47;;;;;;;1.23;0.90;;;;;;;13.07;46.82;95133.56;5029280;28;20436;-65
2022/09/19 02:53:19;;;;;;;0.27;0.27;;;;;;;12.53;47.87;95138.53;5035374;28;20531;-62
2022/09/19 02:55:56;;;;;;;0.00;0.00;;;;;;;13.19;46.92;95134.09;5013311;28;20985;-68
2022/09/19 02:58:26;;;;;;;0.67;0.67;;;;;;;12.57;47.92;95134.31;5029333;28;20543;-69
2022/09/19 03:00:58;;;;;;;0.33;0.33;;;;;;;12.51;47.66;95135.38;5034672;28;20467;-64
2022/09/19 03:07:13;;;;;;;0.10;0.10;;;;;;;12.31;47.58;95135.34;5044726;28;20431;-71
2022/09/19 03:10:02;;;;;;;11.33;1.60;;;;;;;13.08;46.46;95130.69;5050350;28;20935;-66
2022/09/19 03:12:48;;;;;;;0.10;0.10;;;;;;;12.57;47.59;95131.69;5031793;28;20453;-70
2022/09/19 03:15:16;;;;;;;0.20;0.20;;;;;;;12.49;47.75;95136.69;5043691;28;20440;-66
2022/09/19 03:17:49;;;;;;;0.50;0.50;;;;;;;12.72;47.43;95134.34;5053481;28;20434;-65
2022/09/19 03:20:22;;;;;;;0.50;0.50;;;;;;;12.64;47.30;95127.00;5049175;28;20565;-65
2022/09/19 03:22:49;;;;;;;0.57;0.57;;;;;;;12.69;46.72;95120.94;5049010;28;20483;-67
2022/09/19 03:25:17;;;;;;;0.17;0.17;;;;;;;12.57;47.06;95134.31;5039809;28;20444;-68
2022/09/19 03:27:49;;;;;;;0.13;0.13;;;;;;;11.89;48.46;95132.88;5042392;28;20471;-64
2022/09/19 03:30:21;;;;;;;0.03;0.03;;;;;;;12.12;48.12;95136.88;5028931;28;20428;-65
2022/09/19 03:32:48;;;;;;;2.27;1.47;;;;;;;12.48;47.69;95133.25;5043264;28;20443;-65
2022/09/19 03:35:15;;;;;;;0.10;0.10;;;;;;;12.89;46.57;95134.09;5048335;28;20485;-69
2022/09/19 03:37:44;;;;;;;3.03;2.20;;;;;;;12.67;47.18;95131.72;5048400;28;20938;-64
2022/09/19 03:40:11;;;;;;;0.20;0.20;;;;;;;12.22;47.97;95142.16;5028598;28;20529;-69
2022/09/19 03:42:39;;;;;;;0.57;0.53;;;;;;;12.75;46.96;95125.94;5028109;28;21028;-66
2022/09/19 03:45:08;;;;;;;0.40;0.40;;;;;;;12.41;47.53;95124.06;5028197;28;20459;-74
2022/09/19 03:47:37;;;;;;;3.23;1.40;;;;;;;12.19;48.09;95126.91;5028398;28;20475;-65
2022/09/19 03:50:06;;;;;;;0.20;0.20;;;;;;;12.60;47.23;95119.88;5027986;28;20436;-66
2022/09/19 03:52:44;;;;;;;0.70;0.70;;;;;;;12.78;46.81;95114.91;5028085;28;20443;-63
2022/09/19 03:55:11;;;;;;;2.43;1.00;;;;;;;12.60;47.11;95112.78;5047550;28;20447;-69
2022/09/19 03:57:41;;;;;;;0.10;0.10;;;;;;;12.31;47.92;95110.91;5029437;28;20447;-65
2022/09/19 04:00:09;;;;;;;0.57;0.57;;;;;;;12.31;47.63;95109.06;5035137;28;20472;-67
2022/09/19 04:02:42;;;;;;;1.20;1.10;;;;;;;12.76;46.61;95109.09;5035874;28;20496;-70
2022/09/19 04:05:13;;;;;;;0.00;0.00;;;;;;;12.59;47.00;95116.44;5036236;28;20442;-68
2022/09/19 04:07:41;;;;;;;0.40;0.40;;;;;;;12.03;48.77;95112.16;5032821;28;20547;-73
2022/09/19 04:10:08;;;;;;;0.40;0.40;;;;;;;12.47;47.09;95102.00;5049291;28;20436;-71
2022/09/19 04:12:37;;;;;;;0.10;0.10;;;;;;;11.90;51.29;95112.63;5035105;28;20980;-69
2022/09/19 04:15:05;;;;;;;0.40;0.40;;;;;;;11.97;50.05;95092.97;5039083;28;20478;-71
2022/09/19 04:17:33;;;;;;;0.00;0.00;;;;;;;11.99;49.04;95108.47;5028044;28;20446;-72
2022/09/19 04:20:06;;;;;;;0.20;0.20;;;;;;;11.42;50.48;95118.19;5036657;28;20486;-72
2022/09/19 04:22:43;;;;;;;0.77;0.73;;;;;;;11.87;49.68;95113.97;5034730;28;20471;-65
2022/09/19 04:25:35;;;;;;;0.10;0.10;;;;;;;11.34;52.97;95119.44;5046127;28;20428;-62
2022/09/19 04:28:07;;;;;;;0.00;0.00;;;;;;;11.93;51.35;95123.41;5037490;28;20439;-65
2022/09/19 04:30:36;;;;;;;0.50;0.50;;;;;;;11.95;49.74;95117.94;5047945;28;21030;-67
2022/09/19 04:33:05;;;;;;;0.90;0.50;;;;;;;11.81;50.20;95116.81;5033683;28;20912;-69
2022/09/19 04:35:35;;;;;;;0.77;0.77;;;;;;;12.09;49.54;95111.13;5047737;28;20504;-63
2022/09/19 04:38:06;;;;;;;1.80;1.03;;;;;;;11.56;51.04;95111.44;5033158;28;20436;-67
2022/09/19 04:40:38;;;;;;;0.00;0.00;;;;;;;11.68;50.86;95114.66;5047787;28;20502;-62
2022/09/19 04:43:11;;;;;;;0.00;0.00;;;;;;;12.12;49.15;95113.22;5034931;28;21005;-73
2022/09/19 04:45:47;;;;;;;0.40;0.40;;;;;;;11.86;51.13;95117.59;5038754;28;20447;-65
2022/09/19 04:48:25;;;;;;;2.20;0.93;;;;;;;11.29;52.67;95122.06;5027629;28;20448;-62
2022/09/19 04:50:53;;;;;;;0.20;0.20;;;;;;;11.12;52.53;95111.72;5027717;28;20503;-71
2022/09/19 04:53:24;;;;;;;0.00;0.00;;;;;;;12.16;50.18;95104.59;5043299;28;20439;-68
2022/09/19 04:55:54;;;;;;;0.10;0.10;;;;;;;12.61;48.58;95098.59;5042141;28;20479;-72
2022/09/19 04:58:22;;;;;;;0.00;0.00;;;;;;;12.08;49.49;95112.16;5027735;28;20527;-63
2022/09/19 05:00:55;;;;;;;0.00;0.00;;;;;;;12.10;49.34;95113.50;5027737;28;20578;-67
2022/09/19 05:03:26;;;;;;;0.33;0.33;;;;;;;12.24;49.29;95114.56;5038643;28;20430;-66
2022/09/19 05:05:55;;;;;;;0.57;0.50;;;;;;;12.42;48.76;95109.88;5033346;28;20434;-66
2022/09/19 05:08:27;;;;;;;0.10;0.10;;;;;;;12.41;48.96;95118.81;5043425;28;20434;-64
2022/09/19 05:11:00;;;;;;;0.17;0.17;;;;;;;12.60;48.87;95118.03;5046094;28;20475;-69
2022/09/19 05:13:31;;;;;;;0.20;0.20;;;;;;;12.63;48.53;95119.34;5037545;28;20468;-69
2022/09/19 05:16:00;;;;;;;0.10;0.10;;;;;;;12.36;48.30;95111.69;5035477;28;20447;-67
2022/09/19 05:18:37;;;;;;;0.10;0.10;;;;;;;12.33;47.65;95114.88;5041747;28;20459;-72
2022/09/19 05:21:11;;;;;;;0.67;0.67;;;;;;;12.66;47.06;95121.47;5030597;28;20861;-65
2022/09/19 05:23:39;;;;;;;0.67;0.67;;;;;;;12.48;47.13;95122.75;5040432;28;20443;-68
2022/09/19 05:26:16;;;;;;;0.00;0.00;;;;;;;12.64;46.46;95124.38;5050833;28;21000;-74
2022/09/19 05:28:46;;;;;;;0.40;0.40;;;;;;;12.64;46.92;95134.88;5041122;28;20458;-71
2022/09/19 05:31:18;;;;;;;0.40;0.40;;;;;;;12.50;47.48;95133.03;5044731;28;20638;-63
2022/09/19 05:33:54;;;;;;;0.57;0.57;;;;;;;12.81;47.01;95126.75;5031088;28;20448;-68
2022/09/19 05:36:26;;;;;;;0.23;0.23;;;;;;;12.73;47.24;95127.25;5047556;28;20530;-62
2022/09/19 05:39:13;;;;;;;0.57;0.57;;;;;;;12.84;46.58;95134.88;5038580;28;20444;-67
2022/09/19 05:42:00;;;;;;;0.00;0.00;;;;;;;12.84;47.11;95132.25;5032067;28;20981;-67
2022/09/19 05:44:31;;;;;;;0.87;0.67;;;;;;;13.29;45.86;95125.38;5030615;28;20468;-69
2022/09/19 05:47:01;;;;;;;0.30;0.30;;;;;;;12.75;46.29;95133.84;5037122;28;20534;-66
2022/09/19 05:49:30;;;;;;;0.10;0.10;;;;;;;12.71;47.41;95135.41;5050499;28;20443;-69
2022/09/19 05:53:51;;;;;;;6.03;0.87;;;;;;;12.81;47.56;95130.13;5035712;28;20496;-66
2022/09/19 05:54:44;;;;;;;0.00;0.00;;;;;;;13.08;46.79;95133.31;5037260;28;20447;-69
2022/09/19 05:57:34;;;;;;;0.57;0.57;;;;;;;12.68;47.10;95141.16;5033082;28;20479;-67
2022/09/19 06:00:04;;;;;;;0.10;0.10;;;;;;;12.60;47.75;95128.56;5030213;28;20523;-73
2022/09/19 06:02:38;;;;;;;0.17;0.17;;;;;;;12.58;47.25;95130.66;5036389;28;20439;-67
2022/09/19 06:05:07;;;;;;;0.30;0.30;;;;;;;13.30;45.83;95121.72;5050096;28;20462;-71
2022/09/19 06:07:37;;;;;;;0.10;0.10;;;;;;;12.64;47.64;95132.25;5046476;28;20436;-72
2022/09/19 06:10:06;;;;;;;0.53;0.53;;;;;;;13.60;45.81;95127.69;5041785;28;20445;-63
2022/09/19 06:12:34;;;;;;;0.00;0.00;;;;;;;13.47;45.55;95124.81;5035934;28;20439;-71
2022/09/19 06:15:00;;;;;;;0.20;0.20;;;;;;;13.88;45.52;95118.38;5051595;28;20451;-64
2022/09/19 06:17:28;;;;;;;0.33;0.33;;;;;;;13.44;46.62;95133.25;5035398;28;20444;-65
2022/09/19 06:19:57;;;;;;;0.00;0.00;;;;;;;13.26;47.02;95128.56;5030042;28;20905;-67
2022/09/19 06:22:42;;;;;;;0.07;0.07;;;;;;;13.44;46.76;95133.25;5044969;28;21169;-72
2022/09/19 06:25:14;;;;;;;0.20;0.20;;;;;;;12.65;48.84;95127.75;5038649;28;20450;-66
2022/09/19 06:27:46;;;;;;;0.00;0.00;;;;;;;14.22;45.14;95140.34;5035488;28;21052;-60
2022/09/19 06:30:13;;;;;;;0.00;0.00;;;;;;;14.47;44.21;95126.28;5042162;28;20440;-75
2022/09/19 06:33:01;;;;;;;5.60;0.70;;;;;;;14.42;43.97;95127.09;5044489;28;20439;-66
2022/09/19 06:35:47;;;;;;;0.30;0.30;;;;;;;14.12;45.31;95130.63;5042301;28;20900;-71
2022/09/19 06:38:15;;;;;;;0.00;0.00;;;;;;;13.92;45.64;95114.16;5035723;28;20434;-72
2022/09/19 06:40:43;;;;;;;0.00;0.00;;;;;;;13.53;46.40;95131.66;5039473;28;20498;-71
2022/09/19 06:43:26;;;;;;;0.73;0.73;;;;;;;14.41;43.84;95136.06;5028842;28;20463;-67
2022/09/19 06:46:11;;;;;;;0.20;0.20;;;;;;;13.94;46.63;95122.56;5042571;28;20928;-66
2022/09/19 06:48:38;;;;;;;0.20;0.20;;;;;;;14.10;45.81;95121.44;5045667;28;20451;-64
2022/09/19 06:51:23;;;;;;;0.30;0.30;;;;;;;13.91;45.92;95123.09;5030597;28;20529;-69
2022/09/19 06:53:51;;;;;;;0.47;0.47;;;;;;;14.31;44.34;95128.19;5029349;28;20521;-73
2022/09/19 06:56:18;;;;;;;0.23;0.23;;;;;;;14.02;44.49;95124.63;5038502;28;20923;-67
2022/09/19 06:58:46;;;;;;;0.77;0.77;;;;;;;14.62;44.23;95121.69;5038573;28;20799;-62
2022/09/19 07:01:15;;;;;;;0.37;0.37;;;;;;;14.98;43.92;95122.22;5048700;28;20488;-69
2022/09/19 07:03:42;;;;;;;0.10;0.10;;;;;;;14.69;45.26;95118.75;5030395;28;20440;-64
2022/09/19 07:06:12;;;;;;;0.10;0.10;;;;;;;14.39;46.34;95109.19;5036121;28;20466;-71
2022/09/19 07:08:44;;;;;;;0.00;0.00;;;;;;;15.27;44.82;95094.72;5036757;28;20456;-64
2022/09/19 07:11:11;;;;;;;0.20;0.20;;;;;;;14.62;46.10;95108.50;5047959;28;20450;-73
2022/09/19 07:13:48;;;;;;;0.10;0.10;;;;;;;15.09;45.18;95098.06;5037426;28;20500;-69
2022/09/19 07:16:17;;;;;;;0.20;0.20;;;;;;;15.24;44.34;95100.56;5029310;28;20464;-71
2022/09/19 07:18:44;;;;;;;0.37;0.37;;;;;;;15.88;42.88;95089.59;5029336;28;20444;-65
2022/09/19 07:21:29;;;;;;;0.00;0.00;;;;;;;15.57;44.40;95098.94;5029905;28;20479;-67
2022/09/19 07:24:01;;;;;;;0.10;0.10;;;;;;;15.52;43.00;95096.38;5041734;28;20900;-68
2022/09/19 07:26:47;;;;;;;0.10;0.10;;;;;;;15.86;44.80;95096.22;5051653;28;21011;-67
2022/09/19 07:29:18;;;;;;;0.43;0.43;;;;;;;15.49;45.00;95096.13;5048932;28;20505;-71
2022/09/19 07:31:46;;;;;;;0.00;0.00;;;;;;;16.40;42.15;95080.72;5042151;28;20890;-67
2022/09/19 07:34:13;;;;;;;0.33;0.33;;;;;;;16.76;40.46;95084.41;5028744;28;20501;-66
2022/09/19 07:36:52;;;;;;;0.20;0.20;;;;;;;16.94;40.23;95085.44;5031773;28;20451;-68
2022/09/19 07:39:19;;;;;;;0.50;0.50;;;;;;;16.05;41.94;95078.56;5029463;28;20444;-69
2022/09/19 07:42:10;;;;;;;0.30;0.30;;;;;;;16.44;40.47;95060.53;5028626;28;20480;-68
2022/09/19 07:44:59;;;;;;;0.37;0.37;;;;;;;17.15;39.29;95066.28;5028366;28;20497;-71
2022/09/19 07:47:51;;;;;;;0.10;0.10;;;;;;;17.03;39.36;95073.91;5038917;28;20933;-69
2022/09/19 07:50:41;;;;;;;0.00;0.00;;;;;;;17.31;39.48;95068.66;5041883;28;20440;-67
2022/09/19 07:53:21;;;;;;;0.63;0.63;;;;;;;16.59;40.60;95073.56;5035763;28;20988;-63
2022/09/19 07:55:53;;;;;;;0.20;0.20;;;;;;;16.68;39.62;95055.97;5041631;28;20918;-70
2022/09/19 07:58:23;;;;;;;0.10;0.10;;;;;;;17.36;39.31;95060.63;5028804;28;20458;-70
2022/09/19 08:00:58;;;;;;;1.13;0.77;;;;;;;17.13;39.21;95060.47;5033763;28;20482;-68
2022/09/19 08:03:46;;;;;;;0.00;0.00;;;;;;;17.09;39.10;95056.06;5049238;28;20463;-70
2022/09/19 08:06:15;;;;;;;0.17;0.17;;;;;;;17.24;39.33;95059.22;5044809;28;20526;-67
2022/09/19 08:08:42;;;;;;;0.53;0.40;;;;;;;16.98;37.64;95055.47;5028285;28;20452;-67
2022/09/19 08:11:29;;;;;;;0.33;0.33;;;;;;;16.95;41.71;95045.44;5036981;28;20867;-65
2022/09/19 08:13:57;;;;;;;0.97;0.97;;;;;;;17.39;39.76;95047.56;5034743;28;20479;-67
2022/09/19 08:16:25;;;;;;;1.03;0.93;;;;;;;17.90;40.08;95044.75;5028110;28;20450;-69
2022/09/19 08:18:53;;;;;;;0.10;0.10;;;;;;;17.64;39.08;95046.34;5028320;28;20452;-68
2022/09/19 08:21:20;;;;;;;0.87;0.87;;;;;;;18.08;37.91;95038.53;5028948;28;21018;-71
2022/09/19 08:23:49;;;;;;;0.53;0.53;;;;;;;17.67;39.71;95041.22;5027931;28;20448;-69
2022/09/19 08:26:16;;;;;;;0.10;0.10;;;;;;;18.05;38.42;95031.16;5031014;28;20439;-71
2022/09/19 08:28:43;;;;;;;0.10;0.10;;;;;;;18.30;37.39;95033.28;5047801;28;20447;-70
2022/09/19 08:31:12;;;;;;;0.20;0.20;;;;;;;18.03;38.20;95038.63;5033500;28;20475;-74
2022/09/19 08:33:42;;;;;;;0.40;0.40;;;;;;;18.03;38.37;95033.31;5047854;28;20493;-66
2022/09/19 08:36:10;;;;;;;0.20;0.20;;;;;;;17.75;38.84;95037.91;5033139;28;20447;-66
2022/09/19 08:38:37;;;;;;;1.07;0.63;;;;;;;18.20;37.70;95033.47;5036355;28;21015;-70
2022/09/19 08:41:21;;;;;;;0.20;0.20;;;;;;;18.57;37.60;95038.50;5034355;28;20492;-67
2022/09/19 08:44:07;;;;;;;0.30;0.30;;;;;;;19.23;36.45;95031.53;5035500;28;20471;-66
2022/09/19 08:47:02;;;;;;;0.53;0.53;;;;;;;19.85;35.32;95017.09;5044813;28;20873;-74
2022/09/19 08:49:33;;;;;;;0.10;0.10;;;;;;;19.84;34.98;95015.50;5029057;28;20931;-66
2022/09/19 08:52:08;;;;;;;0.10;0.10;;;;;;;19.54;35.93;95019.03;5015313;28;20436;-67
2022/09/19 08:54:40;;;;;;;0.03;0.03;;;;;;;19.66;34.90;95027.19;5043641;28;20574;-72
2022/09/19 08:57:27;;;;;;;0.10;0.10;;;;;;;19.93;32.60;95021.63;5037607;28;20462;-66
2022/09/19 09:00:05;;;;;;;0.23;0.23;;;;;;;19.87;34.69;95017.56;5040998;28;20451;-70
2022/09/19 09:02:53;;;;;;;0.10;0.10;;;;;;;20.12;34.62;95020.28;5045133;28;20479;-64
2022/09/19 09:06:23;;;;;;;0.10;0.10;;;;;;;20.44;33.62;95015.59;5049650;28;21004;-68
2022/09/19 09:09:08;;;;;;;0.43;0.43;;;;;;;21.03;32.82;95004.91;5027783;28;20535;-72
2022/09/19 09:12:11;;;;;;;0.13;0.13;;;;;;;20.18;34.45;95002.31;5031153;28;20435;-72
2022/09/19 09:14:58;;;;;;;0.10;0.10;;;;;;;20.49;34.24;95002.16;5032186;28;20451;-63
2022/09/19 09:18:10;;;;;;;0.20;0.20;;;;;;;20.86;33.94;94991.59;5030920;28;20531;-70
2022/09/19 09:21:09;;;;;;;0.10;0.10;;;;;;;21.17;32.36;95002.81;5031205;28;20503;-66
2022/09/19 09:23:44;;;;;;;0.10;0.10;;;;;;;20.93;31.84;94994.53;5041396;28;20447;-65
2022/09/19 09:26:29;;;;;;;0.10;0.10;;;;;;;21.45;31.18;94981.84;5036584;28;20878;-70
2022/09/19 09:29:27;;;;;;;0.30;0.30;;;;;;;21.32;30.95;94976.72;5039425;28;20432;-69
2022/09/19 09:32:25;;;;;;;0.20;0.20;;;;;;;21.39;31.75;94963.66;5039685;28;20446;-63
2022/09/19 09:35:12;;;;;;;0.20;0.20;;;;;;;21.30;30.94;94958.38;5032825;28;20436;-74
2022/09/19 09:37:56;;;;;;;0.10;0.10;;;;;;;21.91;29.61;94946.31;5043969;28;20854;-66
2022/09/19 09:43:20;;;;;;;0.30;0.30;;;;;;;21.91;25.61;94935.63;5051356;28;20483;-61
2022/09/19 09:45:51;;;;;;;0.20;0.20;;;;;;;22.06;24.63;94919.06;5056659;28;21026;-71
2022/09/19 09:48:34;;;;;;;0.40;0.40;;;;;;;22.50;28.04;94937.00;5050687;28;20493;-66
2022/09/19 09:51:43;;;;;;;0.10;0.10;;;;;;;22.69;28.97;94932.00;5038623;28;20506;-71
2022/09/19 09:56:14;;;;;;;0.10;0.10;;;;;;;23.13;27.34;94928.53;5030491;28;20467;-71
2022/09/19 09:57:17;;;;;;;0.53;0.53;;;;;;;22.91;28.25;94920.91;5036125;28;20509;-68
2022/09/19 10:05:53;;;;;;;0.10;0.10;;;;;;;23.48;25.20;94917.41;5032825;28;20197;-67
2022/09/19 10:08:43;;;;;;;0.20;0.20;;;;;;;23.34;25.19;94915.06;5040636;28;20201;-67
2022/09/19 10:11:19;;;;;;;0.57;0.57;;;;;;;23.12;25.54;94912.78;5051052;28;20212;-70
2022/09/19 10:14:18;;;;;;;0.10;0.10;;;;;;;22.48;25.34;94917.88;5049746;28;20451;-70
2022/09/19 10:16:52;;;;;;;0.10;0.10;;;;;;;22.11;25.77;94913.50;5049850;28;20585;-64
2022/09/19 10:19:30;;;;;;;0.10;0.10;;;;;;;23.10;25.51;94918.47;5035826;28;20603;-67
2022/09/19 10:21:58;;;;;;;0.20;0.20;;;;;;;22.95;27.10;94916.47;5050888;28;20475;-67
2022/09/19 10:24:43;;;;;;;0.23;0.23;;;;;;;22.94;27.65;94911.44;5050899;28;20441;-67
2022/09/19 10:27:15;;;;;;;0.10;0.10;;;;;;;22.90;27.86;94910.56;5038458;28;21053;-70
2022/09/19 10:30:19;;;;;;;0.10;0.10;;;;;;;23.91;26.52;94893.47;5029715;28;20543;-69
2022/09/19 10:32:48;;;;;;;0.40;0.40;;;;;;;23.47;26.69;94894.44;5041992;28;20205;-69
2022/09/19 10:35:38;;;;;;;1.70;0.77;;;;;;;23.40;27.12;94888.88;5040683;28;20574;-68
2022/09/19 10:38:14;;;;;;;0.20;0.20;;;;;;;24.22;25.64;94877.56;5032678;28;20208;-68
2022/09/19 10:40:59;;;;;;;0.10;0.10;;;;;;;24.34;25.44;94880.19;5041132;28;20638;-66
2022/09/19 10:43:48;;;;;;;0.07;0.07;;;;;;;23.49;26.39;94876.94;5029131;28;20237;-70
2022/09/19 10:46:31;;;;;;;0.27;0.27;;;;;;;23.49;25.58;94868.13;5029422;28;20263;-68
2022/09/19 10:49:25;;;;;;;0.40;0.40;;;;;;;24.18;25.50;94865.97;5033168;28;20251;-69
2022/09/19 10:51:59;;;;;;;0.40;0.40;;;;;;;24.10;26.63;94856.19;5034133;28;20200;-66
2022/09/19 10:54:42;;;;;;;0.30;0.30;;;;;;;24.59;25.32;94852.16;5029961;28;20656;-69
2022/09/19 10:57:40;;;;;;;0.33;0.33;;;;;;;24.19;25.71;94840.75;5035168;28;20297;-67
2022/09/19 11:00:25;;;;;;;1.50;0.83;;;;;;;23.93;27.42;94851.09;5049578;28;20246;-70
2022/09/19 11:03:05;;;;;;;0.77;0.77;;;;;;;24.10;26.22;94848.16;5036683;28;20683;-68
2022/09/19 11:05:35;;;;;;;0.20;0.20;;;;;;;24.40;26.40;94838.63;5037324;28;20192;-65
2022/09/19 11:08:07;;;;;;;0.10;0.10;;;;;;;24.46;24.05;94839.16;5043732;28;20295;-69
2022/09/19 11:10:37;;;;;;;0.30;0.30;;;;;;;23.98;26.37;94829.44;5044803;28;20558;-69
2022/09/19 11:13:28;;;;;;;0.10;0.10;;;;;;;24.15;26.73;94818.47;5051102;28;20219;-67
2022/09/19 11:16:05;;;;;;;0.13;0.13;;;;;;;24.82;25.56;94810.25;5046403;28;20215;-63
2022/09/19 11:18:43;;;;;;;0.17;0.17;;;;;;;24.55;25.64;94813.75;5029292;28;20247;-63
2022/09/19 11:21:32;;;;;;;0.10;0.10;;;;;;;24.62;25.21;94811.25;5028781;28;20691;-66
2022/09/19 11:24:05;;;;;;;0.30;0.30;;;;;;;24.62;25.49;94808.59;5041449;28;20228;-65
2022/09/19 11:26:44;;;;;;;0.20;0.20;;;;;;;25.61;24.41;94808.22;5043002;28;20201;-66
2022/09/19 11:29:49;;;;;;;1.43;1.03;;;;;;;25.20;24.16;94808.84;5028742;28;20640;-71
2022/09/19 11:32:23;;;;;;;0.33;0.33;;;;;;;24.91;23.88;94808.16;5039658;28;20224;-66
2022/09/19 11:35:27;;;;;;;0.23;0.23;;;;;;;25.53;22.45;94798.47;5041837;28;20193;-63
2022/09/19 11:38:04;;;;;;;0.50;0.50;;;;;;;25.47;24.52;94791.84;5029758;28;20197;-66
2022/09/19 11:41:19;;;;;;;0.93;0.83;;;;;;;25.50;24.04;94791.13;5037109;28;20209;-65
2022/09/19 11:44:12;;;;;;;0.73;0.60;;;;;;;25.48;24.18;94791.47;5030251;28;20263;-65
2022/09/19 11:46:42;;;;;;;0.30;0.30;;;;;;;25.47;25.89;94797.19;5044704;28;20194;-65
2022/09/19 11:49:52;;;;;;;1.10;1.00;;;;;;;25.62;23.56;94791.00;5040170;28;20192;-63
2022/09/19 11:52:58;;;;;;;0.20;0.20;;;;;;;25.15;22.52;94780.38;5028346;28;20250;-69
2022/09/19 11:55:43;;;;;;;0.20;0.20;;;;;;;25.34;23.01;94779.63;5047972;28;20217;-69
2022/09/19 11:58:15;;;;;;;0.40;0.40;;;;;;;26.13;22.04;94776.28;5022751;28;20224;-73
2022/09/19 12:01:03;;;;;;;0.17;0.17;;;;;;;25.90;22.68;94775.44;5045208;28;20223;-67
2022/09/19 12:04:32;;;;;;;0.73;0.60;;;;;;;26.32;23.36;94773.59;5047749;28;20211;-67
2022/09/19 12:07:23;;;;;;;0.60;0.60;;;;;;;25.90;23.16;94768.19;4978557;28;20294;-66
2022/09/19 12:10:16;;;;;;;0.33;0.30;;;;;;;25.30;22.18;94770.72;4979681;28;20202;-69
2022/09/19 12:13:00;;;;;;;0.70;0.70;;;;;;;26.59;22.20;94761.75;5025713;28;20675;-65
2022/09/19 12:15:38;;;;;;;0.53;0.53;;;;;;;26.51;23.31;94749.34;5035037;28;20654;-67
2022/09/19 12:18:29;;;;;;;0.30;0.30;;;;;;;26.73;22.92;94745.13;5029776;28;20559;-71
2022/09/19 12:21:00;;;;;;;16.13;1.83;;;;;;;26.62;22.22;94744.91;5029351;28;20225;-70
2022/09/19 12:26:29;;;;;;;0.20;0.20;;;;;;;26.74;22.71;94725.94;5032098;28;20285;-68
2022/09/19 12:29:08;;;;;;;0.17;0.17;;;;;;;27.40;22.26;94736.13;5032171;28;20201;-68
2022/09/19 12:31:41;;;;;;;0.30;0.30;;;;;;;27.44;22.19;94731.56;5032275;28;20209;-69
2022/09/19 12:34:29;;;;;;;0.50;0.50;;;;;;;26.72;22.73;94732.81;5032005;28;20211;-68
2022/09/19 12:37:20;;;;;;;0.20;0.20;;;;;;;27.80;20.17;94730.06;5039143;28;20254;-69
2022/09/19 12:40:24;;;;;;;0.47;0.47;;;;;;;27.40;19.97;94724.59;5049969;28;20727;-71
2022/09/19 12:43:13;;;;;;;0.20;0.20;;;;;;;27.47;21.23;94721.97;5031550;28;20297;-69
2022/09/19 12:45:46;;;;;;;0.20;0.20;;;;;;;27.94;20.51;94714.09;5037358;28;20582;-71